TimeCDT,TemperatureF,Dew PointF,Humidity,Sea Level PressureIn,VisibilityMPH,Wind Direction,Wind SpeedMPH,Gust SpeedMPH,PrecipitationIn,Events,Conditions,WindDirDegrees,DateUTC
12:53 AM,81.0,69.1,67,30.02,10.0,SE,4.6,-,N/A,,Mostly Cloudy,130,2013-09-07 05:53:00
1:53 AM,78.1,69.1,74,30.01,10.0,Calm,Calm,-,N/A,,Clear,0,2013-09-07 06:53:00
2:53 AM,75.9,70.0,82,30.01,9.0,Calm,Calm,-,N/A,,Clear,0,2013-09-07 07:53:00
3:53 AM,75.9,69.1,79,30.00,8.0,Calm,Calm,-,N/A,,Clear,0,2013-09-07 08:53:00
4:53 AM,75.0,70.0,84,30.01,8.0,Calm,Calm,-,N/A,,Partly Cloudy,0,2013-09-07 09:53:00
5:53 AM,73.9,70.0,87,30.02,7.0,Calm,Calm,-,N/A,,Clear,0,2013-09-07 10:53:00
6:53 AM,73.0,69.1,87,30.04,5.0,Calm,Calm,-,N/A,,Clear,0,2013-09-07 11:53:00
7:53 AM,78.1,70.0,76,30.04,8.0,Calm,Calm,-,N/A,,Clear,0,2013-09-07 12:53:00
8:53 AM,82.0,66.0,58,30.05,10.0,SE,3.5,-,N/A,,Clear,130,2013-09-07 13:53:00
9:53 AM,86.0,66.9,53,30.06,10.0,Calm,Calm,-,N/A,,Clear,0,2013-09-07 14:53:00
10:53 AM,89.1,68.0,50,30.05,10.0,NNE,4.6,-,N/A,,Clear,30,2013-09-07 15:53:00
11:53 AM,91.0,68.0,47,30.04,10.0,Calm,Calm,-,N/A,,Partly Cloudy,0,2013-09-07 16:53:00
12:53 PM,91.0,66.0,44,30.03,10.0,NW,4.6,-,N/A,,Scattered Clouds,310,2013-09-07 17:53:00
1:53 PM,95.0,64.9,37,30.01,10.0,East,9.2,-,N/A,,Clear,80,2013-09-07 18:53:00
2:53 PM,93.9,62.1,35,29.98,10.0,ENE,3.5,-,N/A,,Clear,60,2013-09-07 19:53:00
3:53 PM,95.0,55.0,26,29.96,10.0,ESE,5.8,-,N/A,,Clear,120,2013-09-07 20:53:00
4:53 PM,93.9,57.0,29,29.95,10.0,Calm,Calm,-,N/A,,Clear,0,2013-09-07 21:53:00
5:53 PM,93.9,61.0,33,29.95,10.0,NE,4.6,-,N/A,,Clear,40,2013-09-07 22:53:00
6:53 PM,89.1,63.0,42,29.96,10.0,SE,8.1,-,N/A,,Clear,140,2013-09-07 23:53:00
7:53 PM,84.9,64.0,49,29.98,10.0,SE,5.8,-,N/A,,Clear,130,2013-09-08 00:53:00
8:53 PM,81.0,64.9,58,29.98,10.0,SSE,4.6,-,N/A,,Clear,160,2013-09-08 01:53:00
9:53 PM,82.0,64.9,56,29.99,10.0,Calm,Calm,-,N/A,,Clear,0,2013-09-08 02:53:00
10:53 PM,79.0,64.9,62,29.99,10.0,SE,4.6,-,N/A,,Clear,130,2013-09-08 03:53:00
11:53 PM,77.0,64.9,66,29.99,10.0,Calm,Calm,-,N/A,,Clear,0,2013-09-08 04:53:00